x

Molasses Reef, Fl (mlrf1) Weather Station

12:00am - Thu 29th Jan 2015 All times are EST. -5 hours from GMT.

  • Wind
    18mph, 22mph gusts
  • Sea Temp 73°f
  • Air Temp 61°f
  • Sea Pressure 1021.5mb
  • Molasses Reef, Fl
  • Molasses Reef, Fl

More Historic Weather Station data

Upgrade to MSW Pro to gain access to the past 30 days of data for over 8000 Wavebouys and Weather Stations around the globe.

Join Pro

Comparision Forecast

View Surf forecast
   
Thu 01/29 12:00am 18 22 mph 1021.5mb 73f 61f
Wed 01/28 11:00pm 17 21 mph 1021.6mb 73f 61f
10:00pm 17 20 mph 1021.7mb 74f 62f
9:00pm 18 22 mph 1021.6mb 74f 62f
8:00pm 18 21 mph 1021.4mb 74f 62f
7:00pm 15 17 mph 1021mb 74f 65f
6:00pm 15 17 mph 1020.4mb 74f 65f
5:00pm 13 15 mph 1020.1mb 74f 64f
4:00pm 14 16 mph 1019.7mb 74f 64f
3:00pm 14 16 mph 1019.4mb 74f 63f
2:00pm 16 21 mph 1019.8mb 74f 62f
1:00pm 16 18 mph 1020.5mb 74f 62f
12:00pm 15 16 mph 1021.3mb 74f 61f
11:00am 18 22 mph 1021.7mb 74f 60f
10:00am 20 21 mph 1021.7mb 73f 59f
9:00am 24 26 mph 1020.8mb 73f 59f
8:00am 21 23 mph 1020.1mb 74f 58f
7:00am 23 24 mph 1019.3mb 74f 59f
6:00am 23 25 mph 1018.3mb 74f 61f
5:00am 24 25 mph 1017.2mb 74f 63f
4:00am 15 17 mph 1017.3mb 74f 66f
3:00am 14 15 mph 1017.5mb 74f 66f
2:00am 15 16 mph 1017.7mb 74f 66f
1:00am 14 16 mph 1017.8mb 74f 66f
12:00am 15 16 mph 1018.1mb 74f 66f
Tue 01/27 11:00pm 17 18 mph 1018.3mb 74f 66f
10:00pm 17 18 mph 1017.9mb 74f 65f
9:00pm 17 20 mph 1017.4mb 74f 64f
8:00pm 20 21 mph 1017.2mb 74f 64f
7:00pm 21 22 mph 1016.8mb 74f 65f
6:00pm 17 18 mph 1016.7mb 74f 65f
5:00pm 20 22 mph 1016.3mb 74f 66f
4:00pm 21 23 mph 1016mb 74f 67f
3:00pm 21 23 mph 1016mb 74f 66f
2:00pm 14 16 mph 1016.6mb 75f 64f
1:00pm 11 13 mph 1017.5mb 75f 63f
12:00pm 11 14 mph 1018.3mb 75f 62f
11:00am 15 16 mph 1018.7mb 74f 60f
10:00am 16 17 mph 1018.6mb 73f 60f
9:00am 18 21 mph 1017.9mb 73f 59f
8:00am 16 18 mph 1017.5mb 73f 59f
7:00am 18 21 mph 1016.5mb 73f 61f
6:00am 15 16 mph 1015.9mb 74f 61f
5:00am 14 16 mph 1015.5mb 74f 62f
4:00am 13 15 mph 1015.4mb 74f 62f
3:00am 20 21 mph 1015.3mb 74f 63f
2:00am 21 23 mph 1015.5mb 74f 63f
1:00am 21 22 mph 1015.6mb 74f 64f
12:00am 20 22 mph 1015.5mb 74f 65f
Mon 01/26 11:00pm 16 20 mph 1015.4mb 74f 66f
10:00pm 16 18 mph 1015.4mb 74f 66f
9:00pm 17 20 mph 1015.1mb 74f 67f
8:00pm 22 26 mph 1014.6mb 74f 67f
7:00pm 26 29 mph 1013.9mb 75f 67f
6:00pm 26 29 mph 1013.3mb 75f 69f
5:00pm 28 30 mph 1012.6mb 75f 69f
4:00pm 26 29 mph 1012.2mb 75f 70f
3:00pm 25 28 mph 1012.2mb 75f 69f
2:00pm 23 24 mph 1012.3mb 76f 69f
1:00pm 22 26 mph 1013.1mb 76f 69f
12:00pm 26 31 mph 1013.7mb 76f 72f
11:00am 28 31 mph 1014.9mb 76f 71f
10:00am 26 30 mph 1015.3mb 75f 70f
9:00am 22 24 mph 1015.4mb 75f 69f
8:00am 21 23 mph 1015mb 75f 69f
7:00am 18 21 mph 1014.9mb 75f 68f
6:00am 20 22 mph 1014.6mb 75f 67f
5:00am 17 20 mph 1014.9mb 74f 67f
4:00am 15 18 mph 1015mb 74f 66f
3:00am 16 18 mph 1014.6mb 74f 65f
2:00am 15 18 mph 1015mb 75f 64f
1:00am 13 14 mph 1015.8mb 75f 64f
12:00am 15 17 mph 1016.9mb 75f 64f
Sun 01/25 11:00pm 17 20 mph 1017.8mb 75f 64f
10:00pm 13 14 mph 1017.5mb 75f 65f
9:00pm 11 14 mph 1017.6mb 75f 64f
8:00pm 9 11 mph 1017mb 75f 65f
7:00pm 7 8 mph 1016.7mb 75f 65f
6:00pm 2 3 mph 1015.8mb 75f 65f
5:00pm 2
mph
1015.9mb 75f 66f
4:00pm 5 7 mph 1015.8mb 75f 65f
3:00pm 7 9 mph 1016mb 75f 64f
2:00pm 9 10 mph 1016.8mb 75f 63f
1:00pm 10 11 mph 1017.5mb 74f 62f
12:00pm 14 15 mph 1018.8mb 74f 60f
11:00am 16 18 mph 1018.9mb 74f 59f
10:00am 20 23 mph 1019.1mb 74f 58f
9:00am 18 22 mph 1018.8mb 74f 57f
8:00am 20 22 mph 1018.3mb 74f 57f
7:00am 17 20 mph 1018mb 74f 57f